Time;durP1;ratioP1;P1;durP2;ratioP2;P2;SDS_P1;SDS_P2;PMS_P1;PMS_P2;Temp;Humidity;BMP_temperature;BMP_pressure;BME280_temperature;BME280_humidity;BME280_pressure;Samples;Min_cycle;Max_cycle;Signal;HPM_P1;HPM_P2
2023/06/08 00:02:12;;;;;;;12.10;5.17;;;;;;;16.17;66.75;101743.50;5052998;28;20477;-85
2023/06/08 00:04:40;;;;;;;8.63;4.10;;;;;;;16.14;66.37;101743.56;5051879;28;20025;-86
2023/06/08 00:07:08;;;;;;;5.68;3.70;;;;;;;16.08;67.46;101740.22;5052602;28;20084;-85
2023/06/08 00:09:35;;;;;;;6.25;4.07;;;;;;;15.97;68.07;101740.50;5051202;28;20058;-85
2023/06/08 00:12:00;;;;;;;12.68;5.28;;;;;;;15.89;67.36;101743.28;5052229;28;20028;-85
2023/06/08 00:14:26;;;;;;;9.23;4.77;;;;;;;15.85;67.99;101739.88;5052958;28;20037;-85
2023/06/08 00:16:51;;;;;;;7.40;4.20;;;;;;;15.82;68.21;101741.69;5052605;28;20029;-86
2023/06/08 00:19:16;;;;;;;10.30;5.27;;;;;;;15.75;68.81;101751.44;5051822;28;20477;-86
2023/06/08 00:21:43;;;;;;;7.40;4.40;;;;;;;15.73;68.49;101745.38;5051872;28;20079;-85
2023/06/08 00:24:10;;;;;;;7.60;4.30;;;;;;;15.72;68.89;101735.78;5052342;28;20374;-85
2023/06/08 00:26:35;;;;;;;5.35;3.85;;;;;;;15.73;67.99;101740.13;5051204;28;20041;-86
2023/06/08 00:29:01;;;;;;;4.33;3.30;;;;;;;15.72;68.52;101739.25;5034209;28;20053;-86
2023/06/08 00:31:26;;;;;;;8.40;3.87;;;;;;;15.70;68.00;101735.84;5052903;28;20485;-85
2023/06/08 00:33:51;;;;;;;8.53;4.20;;;;;;;15.66;68.87;101741.16;5051553;28;20453;-86
2023/06/08 00:36:17;;;;;;;8.83;4.10;;;;;;;15.64;68.79;101738.56;5052450;28;20044;-85
2023/06/08 00:38:45;;;;;;;8.57;4.73;;;;;;;15.56;70.42;101740.50;5052412;28;20465;-85
2023/06/08 00:41:10;;;;;;;11.40;4.88;;;;;;;15.51;69.28;101729.25;5051520;28;20056;-85
2023/06/08 00:43:36;;;;;;;8.80;4.63;;;;;;;15.43;71.07;101721.59;5052135;28;20021;-85
2023/06/08 00:46:02;;;;;;;8.73;4.73;;;;;;;15.44;70.62;101733.78;5052044;28;20021;-85
2023/06/08 00:48:30;;;;;;;12.52;5.35;;;;;;;15.38;70.77;101731.28;5052480;28;20037;-86
2023/06/08 00:50:57;;;;;;;9.95;5.15;;;;;;;15.31;70.53;101727.09;5052641;28;20032;-86
2023/06/08 00:53:24;;;;;;;7.63;4.40;;;;;;;15.31;72.01;101727.09;5051477;28;20041;-86
2023/06/08 00:55:53;;;;;;;6.18;4.07;;;;;;;15.28;70.68;101723.66;5051918;28;20028;-85
2023/06/08 00:58:19;;;;;;;11.75;5.45;;;;;;;15.24;70.69;101724.59;5052617;28;20393;-86
2023/06/08 01:00:46;;;;;;;10.40;5.13;;;;;;;15.20;71.76;101725.53;5050677;28;20025;-86
2023/06/08 01:03:12;;;;;;;9.90;4.70;;;;;;;15.12;72.45;101717.88;5052111;28;20485;-86
2023/06/08 01:05:38;;;;;;;8.80;4.35;;;;;;;15.13;71.30;101714.38;5052011;28;20124;-86
2023/06/08 01:08:08;;;;;;;6.67;4.03;;;;;;;15.14;71.61;101715.22;5051228;28;20112;-86
2023/06/08 01:10:46;;;;;;;6.68;3.72;;;;;;;15.13;70.43;101727.44;5034131;28;20086;-85
2023/06/08 01:13:36;;;;;;;12.98;4.82;;;;;;;15.08;72.33;101716.22;5052422;28;20099;-85
2023/06/08 01:16:04;;;;;;;10.68;4.60;;;;;;;15.02;72.60;101716.34;5051512;28;20033;-86
2023/06/08 01:18:40;;;;;;;5.85;3.78;;;;;;;15.03;71.18;101723.25;5051424;28;20509;-86
2023/06/08 01:21:47;;;;;;;9.38;4.35;;;;;;;14.98;73.83;101722.50;5036036;28;20421;-86
2023/06/08 01:24:19;;;;;;;10.27;4.90;;;;;;;14.94;72.77;101713.00;5056274;28;20103;-86
2023/06/08 01:26:50;;;;;;;12.00;5.28;;;;;;;14.90;72.90;101720.03;5055619;28;20552;-86
2023/06/08 01:29:18;;;;;;;12.43;5.97;;;;;;;14.82;74.60;101716.72;5055457;28;20017;-85
2023/06/08 01:31:43;;;;;;;13.95;5.75;;;;;;;14.76;74.74;101715.09;5055742;28;20524;-86
2023/06/08 01:34:12;;;;;;;10.57;5.10;;;;;;;14.74;74.46;101716.88;5055613;28;20064;-85
2023/06/08 01:36:51;;;;;;;13.32;5.97;;;;;;;14.63;74.94;101714.44;5054652;28;20037;-85
2023/06/08 01:39:30;;;;;;;10.93;5.47;;;;;;;14.63;74.01;101710.94;5057454;28;20021;-85
2023/06/08 01:42:00;;;;;;;7.82;4.70;;;;;;;14.64;73.54;101712.66;5055542;28;20090;-85
2023/06/08 01:44:29;;;;;;;10.65;4.60;;;;;;;14.61;75.40;101708.38;5055129;28;20417;-86
2023/06/08 01:46:56;;;;;;;8.82;5.10;;;;;;;14.58;74.18;101710.19;5055500;28;20021;-86
2023/06/08 01:49:26;;;;;;;7.38;4.38;;;;;;;14.52;74.54;101703.31;5054403;28;20037;-85
2023/06/08 01:51:51;;;;;;;10.68;4.75;;;;;;;14.51;74.01;101706.81;5055213;28;20021;-85
2023/06/08 01:54:17;;;;;;;6.43;4.17;;;;;;;14.51;73.65;101699.84;5055000;28;20072;-86
2023/06/08 01:56:42;;;;;;;8.67;4.20;;;;;;;14.48;73.57;101699.03;5054233;28;20040;-85
2023/06/08 01:59:07;;;;;;;9.30;4.33;;;;;;;14.45;74.98;101702.56;5055062;28;20474;-85
2023/06/08 02:01:33;;;;;;;8.83;4.67;;;;;;;14.40;75.53;101696.56;5054716;28;20071;-85
2023/06/08 02:04:00;;;;;;;7.73;4.13;;;;;;;14.35;76.61;101699.25;5054028;28;20025;-85
2023/06/08 02:06:26;;;;;;;8.00;4.13;;;;;;;14.26;76.07;101688.97;5054808;28;20070;-86
2023/06/08 02:08:54;;;;;;;6.07;3.97;;;;;;;14.31;75.29;101697.56;5054926;28;20029;-86
2023/06/08 02:11:22;;;;;;;7.30;4.22;;;;;;;14.27;75.51;101689.81;5054358;28;20401;-85
2023/06/08 02:13:48;;;;;;;10.93;4.40;;;;;;;14.21;75.90;101690.78;5054836;28;20139;-85
2023/06/08 02:16:13;;;;;;;9.30;4.33;;;;;;;14.16;75.84;101693.47;5055095;28;20025;-86
2023/06/08 02:18:42;;;;;;;13.23;5.90;;;;;;;14.08;76.42;101695.34;5053754;28;20524;-85
2023/06/08 02:21:08;;;;;;;12.82;6.10;;;;;;;13.93;76.52;101680.81;5054780;28;20481;-85
2023/06/08 02:23:34;;;;;;;12.60;5.32;;;;;;;13.98;77.45;101697.22;5054659;28;20048;-86
2023/06/08 02:26:00;;;;;;;8.77;4.73;;;;;;;13.99;77.34;101698.13;5054288;28;20469;-85
2023/06/08 02:28:25;;;;;;;7.53;4.13;;;;;;;13.97;75.53;101699.88;5055269;28;20029;-85
2023/06/08 02:30:50;;;;;;;5.27;3.33;;;;;;;13.94;75.48;101690.38;5053502;28;20025;-85
2023/06/08 02:33:16;;;;;;;5.23;3.50;;;;;;;13.98;74.52;101707.69;5053859;28;20020;-85
2023/06/08 02:35:42;;;;;;;8.83;4.43;;;;;;;13.97;75.70;101707.72;5054546;28;20029;-85
2023/06/08 02:38:07;;;;;;;11.67;5.10;;;;;;;13.86;75.98;101700.03;5056522;28;20021;-86
2023/06/08 02:40:32;;;;;;;8.17;4.33;;;;;;;13.85;76.00;101700.91;5057410;28;20477;-85
2023/06/08 02:42:58;;;;;;;7.77;4.20;;;;;;;13.82;75.98;101707.06;5054900;28;20504;-85
2023/06/08 02:45:24;;;;;;;10.27;5.00;;;;;;;13.75;77.12;101702.81;5054921;28;20484;-86
2023/06/08 02:47:49;;;;;;;9.23;4.70;;;;;;;13.73;78.10;101704.59;5053402;28;20097;-86
2023/06/08 02:50:15;;;;;;;11.40;5.40;;;;;;;13.65;77.72;101696.03;5036566;28;20056;-86
2023/06/08 02:52:40;;;;;;;8.33;4.73;;;;;;;13.65;78.53;101696.88;5053059;28;20029;-86
2023/06/08 02:55:06;;;;;;;11.33;5.37;;;;;;;13.58;78.20;101697.84;5054251;28;20068;-86
2023/06/08 02:57:32;;;;;;;8.40;4.80;;;;;;;13.56;76.88;101692.66;5053465;28;20036;-85
2023/06/08 02:59:58;;;;;;;6.60;3.95;;;;;;;13.58;77.31;101700.47;5053730;28;20362;-85
2023/06/08 03:02:23;;;;;;;6.13;3.97;;;;;;;13.61;76.70;101705.63;5054379;28;20043;-85
2023/06/08 03:04:52;;;;;;;8.73;4.73;;;;;;;13.54;77.83;101704.84;5053598;28;20028;-85
2023/06/08 03:07:17;;;;;;;12.40;5.07;;;;;;;13.48;79.93;101698.88;5053574;28;20025;-85
2023/06/08 03:09:42;;;;;;;8.87;4.53;;;;;;;13.46;77.27;101695.41;5053838;28;20052;-86
2023/06/08 03:12:09;;;;;;;6.47;3.90;;;;;;;13.43;77.08;101691.94;5054330;28;20024;-85
2023/06/08 03:14:38;;;;;;;6.25;3.72;;;;;;;13.44;76.45;101691.06;5053134;28;20043;-84
2023/06/08 03:17:04;;;;;;;4.72;3.22;;;;;;;13.46;76.83;101685.81;5053995;28;20037;-86
2023/06/08 03:19:30;;;;;;;4.57;3.20;;;;;;;13.49;76.75;101687.56;5035801;28;20023;-86
2023/06/08 03:22:00;;;;;;;4.28;3.10;;;;;;;13.49;77.88;101690.16;5051930;28;20428;-85
2023/06/08 03:24:28;;;;;;;3.30;2.80;;;;;;;13.47;76.59;101692.78;5053878;28;20028;-85
2023/06/08 03:26:55;;;;;;;3.33;2.72;;;;;;;13.46;76.07;101687.59;5053636;28;20037;-85
2023/06/08 03:29:22;;;;;;;5.50;3.40;;;;;;;13.42;76.38;101690.22;5053180;28;20028;-85
2023/06/08 03:31:47;;;;;;;4.32;3.00;;;;;;;13.43;76.84;101691.94;5053298;28;20083;-85
2023/06/08 03:34:13;;;;;;;6.00;3.70;;;;;;;13.46;76.07;101695.41;5054163;28;20377;-85
2023/06/08 03:36:38;;;;;;;5.10;3.20;;;;;;;13.41;78.73;101693.72;5054074;28;20529;-85
2023/06/08 03:39:04;;;;;;;8.00;4.07;;;;;;;13.35;77.06;101692.91;5053611;28;20111;-85
2023/06/08 03:41:30;;;;;;;5.78;3.60;;;;;;;13.32;76.83;101692.97;5053100;28;20132;-84
2023/06/08 03:43:56;;;;;;;5.47;3.40;;;;;;;13.36;75.99;101692.91;5052772;28;20029;-84
2023/06/08 03:46:21;;;;;;;4.77;3.00;;;;;;;13.36;79.16;101692.91;5053157;28;20454;-85
2023/06/08 03:48:47;;;;;;;5.23;3.40;;;;;;;13.33;77.08;101690.31;5051984;28;20043;-85
2023/06/08 03:51:15;;;;;;;5.60;3.60;;;;;;;13.46;75.24;101691.03;5053211;28;20029;-84
2023/06/08 03:53:40;;;;;;;8.85;4.65;;;;;;;13.29;78.88;101693.84;5051841;28;20041;-85
2023/06/08 03:56:05;;;;;;;10.17;5.10;;;;;;;13.22;79.38;101692.22;5052577;28;20553;-84
2023/06/08 03:58:38;;;;;;;8.17;4.20;;;;;;;13.19;78.15;101692.25;5053282;28;20009;-84
2023/06/08 04:01:05;;;;;;;7.00;4.00;;;;;;;13.18;78.33;101687.91;5052606;28;20123;-85
2023/06/08 04:03:31;;;;;;;6.50;3.67;;;;;;;13.16;78.18;101682.72;5051890;28;20112;-85
2023/06/08 04:05:56;;;;;;;8.73;4.53;;;;;;;13.17;78.17;101691.41;5053294;28;20099;-84
2023/06/08 04:08:22;;;;;;;7.40;4.33;;;;;;;13.17;78.26;101691.41;5052560;28;20366;-84
2023/06/08 04:10:48;;;;;;;5.97;3.80;;;;;;;13.16;77.51;101692.31;5051897;28;20045;-84
2023/06/08 04:13:13;;;;;;;13.47;5.63;;;;;;;13.10;80.48;101698.44;5052972;28;20033;-84
2023/06/08 04:15:38;;;;;;;10.60;4.83;;;;;;;13.07;78.45;101694.13;5052324;28;20031;-84
2023/06/08 04:18:05;;;;;;;9.30;4.93;;;;;;;13.06;81.12;101686.31;5052044;28;20023;-84
2023/06/08 04:20:33;;;;;;;9.90;4.55;;;;;;;13.07;79.07;101688.91;5052803;28;20043;-85
2023/06/08 04:22:58;;;;;;;10.73;5.65;;;;;;;13.02;81.09;101688.13;5049678;28;20435;-84
2023/06/08 04:25:27;;;;;;;8.97;4.90;;;;;;;13.01;81.27;101694.19;5034102;28;20029;-84
2023/06/08 04:27:52;;;;;;;8.48;4.65;;;;;;;12.99;79.74;101693.34;5052106;28;20401;-84
2023/06/08 04:30:18;;;;;;;12.67;6.10;;;;;;;12.94;82.80;101684.75;5052351;28;20025;-84
2023/06/08 04:32:44;;;;;;;13.35;5.82;;;;;;;12.88;81.52;101690.00;5051338;28;20087;-85
2023/06/08 04:35:10;;;;;;;13.03;6.13;;;;;;;12.83;82.22;101682.25;5052441;28;20025;-84
2023/06/08 04:37:35;;;;;;;11.43;5.67;;;;;;;12.89;79.86;101686.53;5052255;28;20473;-85
2023/06/08 04:40:04;;;;;;;13.60;6.30;;;;;;;12.90;79.15;101683.88;5051386;28;20100;-84
2023/06/08 04:42:32;;;;;;;12.45;5.80;;;;;;;12.90;81.18;101685.66;5052261;28;20090;-85
2023/06/08 04:45:00;;;;;;;12.52;5.95;;;;;;;12.94;80.19;101688.19;5051729;28;20029;-85
2023/06/08 04:47:29;;;;;;;12.18;5.90;;;;;;;12.92;80.94;101682.13;5051706;28;20032;-85
2023/06/08 04:49:56;;;;;;;9.90;5.38;;;;;;;12.98;79.38;101683.81;5052561;28;20024;-86
2023/06/08 04:52:22;;;;;;;7.13;4.35;;;;;;;13.01;80.24;101686.38;5051219;28;20025;-85
2023/06/08 04:54:52;;;;;;;7.88;4.10;;;;;;;13.07;79.72;101688.91;5051205;28;20405;-85
2023/06/08 04:57:19;;;;;;;7.97;4.07;;;;;;;13.14;80.03;101679.25;5052006;28;20040;-84
2023/06/08 04:59:45;;;;;;;8.43;4.57;;;;;;;13.17;81.11;101686.22;5050959;28;20047;-84
2023/06/08 05:02:10;;;;;;;5.23;3.87;;;;;;;13.21;79.28;101683.53;5052131;28;20033;-84
2023/06/08 05:04:36;;;;;;;5.83;3.53;;;;;;;13.29;79.02;101681.69;5051709;28;20029;-85
2023/06/08 05:07:04;;;;;;;5.27;3.50;;;;;;;13.35;78.59;101674.66;5033795;28;20367;-85
2023/06/08 05:09:29;;;;;;;6.90;4.00;;;;;;;13.47;78.94;101681.50;5051468;28;20074;-84
2023/06/08 05:11:55;;;;;;;4.73;3.30;;;;;;;13.52;78.61;101682.28;5051968;28;20422;-85
2023/06/08 05:14:20;;;;;;;5.13;3.17;;;;;;;13.59;78.51;101678.72;5051044;28;20436;-85
2023/06/08 05:16:45;;;;;;;4.93;3.20;;;;;;;13.67;76.63;101673.38;5051731;28;20131;-85
2023/06/08 05:19:13;;;;;;;7.07;3.87;;;;;;;13.59;78.33;101681.31;5052259;28;20146;-85
2023/06/08 05:21:39;;;;;;;15.23;6.65;;;;;;;13.51;78.19;101680.56;5049775;28;20086;-85
2023/06/08 05:24:05;;;;;;;12.43;6.00;;;;;;;13.42;78.89;101684.16;5052263;28;20029;-85
2023/06/08 05:26:31;;;;;;;10.67;5.27;;;;;;;13.43;79.49;101684.13;5051761;28;20393;-85
2023/06/08 05:28:56;;;;;;;9.00;4.50;;;;;;;13.48;78.88;101689.28;5051354;28;20657;-85
2023/06/08 05:31:21;;;;;;;12.37;5.80;;;;;;;13.46;79.02;101679.75;5052180;28;20029;-83
2023/06/08 05:33:47;;;;;;;17.87;8.37;;;;;;;13.35;79.94;101677.25;5052086;28;20029;-83
2023/06/08 05:36:12;;;;;;;17.27;8.50;;;;;;;13.31;80.36;101678.19;5051177;28;20466;-83
2023/06/08 05:38:38;;;;;;;19.53;9.00;;;;;;;13.28;80.18;101674.75;5051609;28;20116;-83
2023/06/08 05:41:03;;;;;;;14.87;7.37;;;;;;;13.40;80.47;101675.50;5051961;28;20053;-86
2023/06/08 05:43:28;;;;;;;12.87;6.70;;;;;;;13.50;78.79;101669.25;5051507;28;20021;-85
2023/06/08 05:45:54;;;;;;;11.40;5.77;;;;;;;13.65;79.08;101668.16;5051908;28;20466;-85
2023/06/08 05:48:19;;;;;;;15.03;6.63;;;;;;;13.69;78.57;101668.97;5050206;28;20036;-85
2023/06/08 05:50:44;;;;;;;19.13;9.73;;;;;;;13.51;79.51;101665.78;5051593;28;20028;-85
2023/06/08 05:53:10;;;;;;;20.67;9.57;;;;;;;13.50;79.63;101664.06;5051678;28;20021;-86
2023/06/08 05:55:36;;;;;;;17.10;8.47;;;;;;;13.55;79.37;101663.97;5050986;28;20039;-85
2023/06/08 05:58:01;;;;;;;16.95;8.20;;;;;;;13.60;79.12;101667.41;5051283;28;20033;-86
2023/06/08 06:00:27;;;;;;;11.30;5.90;;;;;;;13.70;78.58;101670.72;5052257;28;20032;-89
2023/06/08 06:02:52;;;;;;;11.40;5.70;;;;;;;13.91;78.76;101672.13;5051802;28;20108;-88
2023/06/08 06:05:17;;;;;;;7.60;4.90;;;;;;;14.47;78.24;101668.56;5052030;28;20112;-85
2023/06/08 06:07:42;;;;;;;12.23;5.47;;;;;;;15.00;75.83;101670.19;5053520;28;20021;-87
2023/06/08 06:10:08;;;;;;;9.37;4.80;;;;;;;15.70;76.21;101661.69;5054867;28;20029;-86
2023/06/08 06:12:33;;;;;;;11.23;6.37;;;;;;;17.38;67.33;101666.81;5055162;28;20108;-86
2023/06/08 06:14:59;;;;;;;15.33;6.60;;;;;;;18.21;67.15;101671.16;5055199;28;20377;-87
2023/06/08 06:17:24;;;;;;;10.27;5.33;;;;;;;18.67;65.19;101673.09;5054225;28;20106;-86
2023/06/08 06:19:50;;;;;;;12.70;6.03;;;;;;;18.61;63.45;101674.16;5055072;28;20128;-88
2023/06/08 06:22:16;;;;;;;11.33;5.13;;;;;;;18.23;66.37;101665.00;5055102;28;20044;-87
2023/06/08 06:24:41;;;;;;;7.70;4.80;;;;;;;18.08;66.45;101677.75;5054094;28;20033;-86
2023/06/08 06:27:07;;;;;;;6.90;4.20;;;;;;;18.13;66.04;101673.22;5054572;28;20023;-88
2023/06/08 06:29:33;;;;;;;15.53;7.10;;;;;;;18.23;61.44;101675.53;5055127;28;20449;-90
2023/06/08 06:31:58;;;;;;;19.58;8.90;;;;;;;17.71;63.70;101671.91;5055035;28;20103;-88
2023/06/08 06:34:23;;;;;;;15.60;8.27;;;;;;;17.56;62.69;101672.41;5054591;28;20573;-89
2023/06/08 06:36:49;;;;;;;20.50;10.13;;;;;;;16.81;65.92;101671.09;5055240;28;20031;-89
2023/06/08 06:39:26;;;;;;;18.53;9.00;;;;;;;16.81;65.91;101668.47;5053787;28;20025;-87
2023/06/08 06:41:51;;;;;;;15.88;7.45;;;;;;;16.93;66.94;101665.50;5053890;28;20029;-87
2023/06/08 06:44:17;;;;;;;13.37;7.23;;;;;;;17.31;66.07;101665.31;5054557;28;20107;-87
2023/06/08 06:46:43;;;;;;;12.70;6.80;;;;;;;17.58;64.51;101668.81;5054360;28;20025;-89
2023/06/08 06:49:08;;;;;;;13.75;6.55;;;;;;;17.62;65.85;101669.59;5054402;28;20070;-91
2023/06/08 06:51:36;;;;;;;15.23;6.43;;;;;;;17.71;63.67;101674.53;5054806;28;20044;-87
2023/06/08 06:54:01;;;;;;;19.63;8.95;;;;;;;17.54;64.15;101664.56;5053571;28;20044;-88
2023/06/08 06:56:26;;;;;;;15.23;7.30;;;;;;;17.62;65.70;101676.63;5054984;28;20029;-89
2023/06/08 06:58:52;;;;;;;11.47;6.07;;;;;;;17.90;64.19;101681.84;5054156;28;20021;-89
2023/06/08 07:01:18;;;;;;;8.93;5.20;;;;;;;18.13;64.43;101677.59;5054094;28;20513;-87
2023/06/08 07:03:44;;;;;;;11.43;5.90;;;;;;;18.28;63.86;101687.59;5053630;28;20060;-88
2023/06/08 07:06:10;;;;;;;13.50;6.28;;;;;;;18.37;62.27;101679.38;5053875;28;20416;-87
2023/06/08 07:08:36;;;;;;;16.05;8.02;;;;;;;18.35;61.44;101689.06;5053746;28;20516;-89
2023/06/08 07:11:01;;;;;;;14.27;7.30;;;;;;;18.31;62.91;101687.50;5054488;28;20028;-87
2023/06/08 07:13:27;;;;;;;13.33;5.80;;;;;;;18.50;63.59;101686.84;5053432;28;20283;-88
2023/06/08 07:15:53;;;;;;;15.80;7.50;;;;;;;18.56;61.88;101694.53;5054215;28;20057;-88
2023/06/08 07:18:19;;;;;;;11.35;5.80;;;;;;;18.63;62.94;101692.53;5062164;28;20005;-88
2023/06/08 07:20:44;;;;;;;10.77;5.10;;;;;;;18.82;61.65;101687.44;5067196;28;20104;-88
2023/06/08 07:23:09;;;;;;;13.40;6.57;;;;;;;18.78;60.85;101686.72;5054295;28;20025;-90
2023/06/08 07:25:35;;;;;;;12.00;5.80;;;;;;;18.90;62.70;101685.41;5054245;28;20036;-88
2023/06/08 07:28:00;;;;;;;9.83;5.60;;;;;;;19.07;62.12;101686.56;5053383;28;20029;-89
2023/06/08 07:30:26;;;;;;;7.63;4.63;;;;;;;19.27;62.71;101685.81;5054776;28;20430;-91
2023/06/08 07:32:54;;;;;;;6.63;4.33;;;;;;;19.49;62.31;101680.56;5053425;28;20091;-88
2023/06/08 07:35:19;;;;;;;14.40;6.55;;;;;;;19.55;61.02;101669.81;5052437;28;20029;-88
2023/06/08 07:37:45;;;;;;;15.50;7.67;;;;;;;19.46;59.82;101675.44;5053779;28;20024;-88
2023/06/08 07:40:11;;;;;;;7.30;4.75;;;;;;;19.53;60.07;101674.28;5053435;28;20331;-88
2023/06/08 07:42:37;;;;;;;12.27;6.10;;;;;;;19.65;61.04;101667.63;5053101;28;20067;-87
2023/06/08 07:45:03;;;;;;;11.93;6.38;;;;;;;19.71;58.41;101664.78;5053831;28;20045;-88
2023/06/08 07:47:28;;;;;;;17.65;8.27;;;;;;;19.57;59.67;101667.97;5053061;28;20033;-87
2023/06/08 07:49:53;;;;;;;11.33;6.10;;;;;;;19.63;60.77;101658.09;5052634;28;20021;-89
2023/06/08 07:52:19;;;;;;;12.30;6.60;;;;;;;19.70;57.95;101662.22;5053641;28;20464;-89
2023/06/08 07:54:44;;;;;;;11.73;5.65;;;;;;;19.78;59.69;101668.00;5052834;28;20069;-89
2023/06/08 07:57:11;;;;;;;9.27;5.00;;;;;;;19.88;59.79;101672.00;5052614;28;20017;-87
2023/06/08 07:59:37;;;;;;;15.27;7.57;;;;;;;19.81;56.80;101673.16;5053435;28;20124;-89
2023/06/08 08:02:02;;;;;;;15.27;7.10;;;;;;;19.71;58.59;101661.25;5052815;28;20048;-89
2023/06/08 08:04:27;;;;;;;19.10;8.93;;;;;;;19.44;57.98;101664.09;5053274;28;20477;-91
2023/06/08 08:06:53;;;;;;;20.97;10.23;;;;;;;19.00;59.77;101670.16;5052918;28;20071;-88
2023/06/08 08:09:18;;;;;;;18.30;8.93;;;;;;;18.93;60.37;101671.28;5053095;28;20032;-91
2023/06/08 08:11:45;;;;;;;19.47;8.90;;;;;;;18.92;60.73;101670.41;5053153;28;20385;-89
2023/06/08 08:14:11;;;;;;;14.73;7.20;;;;;;;19.08;61.24;101668.09;5053350;28;20071;-88
2023/06/08 08:16:39;;;;;;;11.63;6.00;;;;;;;19.38;61.24;101665.22;5052130;28;20061;-88
2023/06/08 08:19:07;;;;;;;14.40;7.57;;;;;;;19.57;59.73;101665.34;5053261;28;20428;-88
2023/06/08 08:21:33;;;;;;;15.65;7.28;;;;;;;19.78;59.38;101664.50;5061201;28;20039;-89
2023/06/08 08:24:00;;;;;;;15.83;7.83;;;;;;;19.95;58.76;101672.63;5053125;28;20025;-88
2023/06/08 08:26:31;;;;;;;16.08;8.43;;;;;;;19.85;58.65;101660.72;5053608;28;20028;-89
2023/06/08 08:28:56;;;;;;;16.60;8.10;;;;;;;19.97;58.51;101659.38;5053246;28;20032;-88
2023/06/08 08:31:22;;;;;;;16.47;7.93;;;;;;;20.01;58.71;101659.19;5051813;28;20420;-89
2023/06/08 08:33:47;;;;;;;12.23;6.13;;;;;;;20.14;59.29;101662.16;5052038;28;20111;-88
2023/06/08 08:36:16;;;;;;;11.13;5.50;;;;;;;20.45;58.88;101665.22;5053173;28;20021;-88
2023/06/08 08:38:41;;;;;;;10.57;5.60;;;;;;;20.72;58.33;101654.38;5051417;28;20029;-89
2023/06/08 08:41:10;;;;;;;13.47;6.00;;;;;;;20.92;58.18;101656.16;5052730;28;20036;-88
2023/06/08 08:44:01;;;;;;;11.52;6.45;;;;;;;21.15;57.29;101652.44;5053013;28;20025;-89
2023/06/08 08:46:30;;;;;;;18.33;9.07;;;;;;;20.93;56.03;101652.59;5054216;28;20035;-89
2023/06/08 08:48:58;;;;;;;15.70;8.75;;;;;;;20.80;56.59;101655.78;5052281;28;20025;-89
2023/06/08 08:51:24;;;;;;;15.25;7.20;;;;;;;20.88;56.56;101658.09;5052358;28;20021;-89
2023/06/08 08:53:51;;;;;;;9.98;5.80;;;;;;;21.01;56.59;101658.38;5052346;28;20049;-89
2023/06/08 08:56:25;;;;;;;;;;;;;;;21.19;57.36;101648.72;5053007;28;20028;-87
2023/06/08 08:58:50;;;;;;;10.52;5.75;;;;;;;21.51;54.74;101656.88;5053226;28;19913;-88
2023/06/08 09:01:17;;;;;;;9.25;5.20;;;;;;;21.64;56.61;101648.41;5051871;28;20037;-88
2023/06/08 09:03:45;;;;;;;13.35;5.85;;;;;;;21.82;55.25;101644.81;5053010;28;20053;-88
2023/06/08 09:06:11;;;;;;;13.68;6.85;;;;;;;21.96;54.24;101649.41;5044601;28;20063;-89
2023/06/08 09:08:36;;;;;;;16.80;8.27;;;;;;;21.79;53.56;101647.63;5051628;28;20056;-89
2023/06/08 09:11:09;;;;;;;15.57;8.20;;;;;;;21.66;53.81;101652.66;5052698;28;20532;-88
2023/06/08 09:13:38;;;;;;;12.05;6.72;;;;;;;21.64;55.07;101649.22;5051543;28;20436;-89
2023/06/08 09:16:09;;;;;;;13.80;7.30;;;;;;;21.61;54.09;101654.69;5052828;28;20037;-89
2023/06/08 09:18:36;;;;;;;10.10;5.50;;;;;;;21.82;54.66;101638.69;5052881;28;20381;-91
2023/06/08 09:21:21;;;;;;;;;;;;;;;22.00;53.07;101656.25;5052432;28;20029;-90
2023/06/08 09:24:11;;;;;;;14.43;7.40;;;;;;;21.48;54.45;101637.69;5051564;28;19917;-91
2023/06/08 09:26:37;;;;;;;11.95;6.15;;;;;;;21.67;55.51;101638.53;5051757;28;20025;-88
2023/06/08 09:29:03;;;;;;;11.97;5.33;;;;;;;22.05;55.31;101626.94;5051948;28;20032;-89
2023/06/08 09:31:30;;;;;;;10.65;6.00;;;;;;;22.40;52.79;101642.75;5052530;28;20271;-90
2023/06/08 09:34:09;;;;;;;9.25;5.20;;;;;;;22.63;54.27;101638.06;5051836;28;20036;-88
2023/06/08 09:36:38;;;;;;;11.55;6.10;;;;;;;22.86;52.47;101626.22;5052061;28;20377;-89
2023/06/08 09:39:08;;;;;;;15.52;7.20;;;;;;;22.78;51.71;101641.66;5052608;28;20028;-90
2023/06/08 09:41:37;;;;;;;12.85;6.63;;;;;;;22.80;50.76;101632.72;5053283;28;20036;-88
2023/06/08 09:44:18;;;;;;;11.82;6.03;;;;;;;22.95;51.24;101633.69;5054812;28;20025;-88
2023/06/08 09:46:48;;;;;;;12.07;5.50;;;;;;;22.91;50.59;101632.13;5056367;28;20108;-88
2023/06/08 09:49:14;;;;;;;10.20;5.20;;;;;;;23.03;52.53;101630.59;5055355;28;20385;-87
2023/06/08 09:51:45;;;;;;;14.93;7.10;;;;;;;23.10;50.21;101624.03;5055739;28;20028;-88
2023/06/08 09:54:13;;;;;;;10.18;5.20;;;;;;;23.28;51.16;101616.88;5055603;28;20059;-87
2023/06/08 09:56:41;;;;;;;7.80;4.10;;;;;;;23.57;51.71;101629.38;5055853;28;20040;-88
2023/06/08 09:59:13;;;;;;;10.68;5.53;;;;;;;23.72;49.05;101627.63;5056091;28;20024;-89
2023/06/08 10:02:05;;;;;;;7.85;4.53;;;;;;;23.86;49.29;101621.50;5054686;28;20045;-91
2023/06/08 10:04:36;;;;;;;8.50;5.40;;;;;;;23.80;47.78;101619.22;5055176;28;20025;-87
2023/06/08 10:07:03;;;;;;;11.18;5.85;;;;;;;23.67;47.97;101614.66;5055975;28;20020;-88
2023/06/08 10:09:33;;;;;;;12.48;6.30;;;;;;;23.59;47.37;101622.19;5054891;28;20171;-89
2023/06/08 10:12:00;;;;;;;7.15;4.50;;;;;;;23.88;49.12;101614.31;5055431;28;20032;-86
2023/06/08 10:14:26;;;;;;;5.13;3.78;;;;;;;24.27;49.48;101618.19;5055520;28;20067;-87
2023/06/08 10:16:53;;;;;;;5.43;3.70;;;;;;;24.69;46.93;101612.16;5054190;28;20461;-78
2023/06/08 10:19:19;;;;;;;12.32;5.20;;;;;;;24.71;47.08;101604.94;5055364;28;20109;-93
2023/06/08 10:21:47;;;;;;;8.30;4.63;;;;;;;24.82;47.10;101611.28;5055903;28;20433;-92
2023/06/08 10:24:12;;;;;;;9.73;4.93;;;;;;;24.96;44.35;101610.38;5055406;28;20047;-91
2023/06/08 10:26:38;;;;;;;10.70;5.20;;;;;;;24.83;45.25;101605.00;5055607;28;20025;-91
2023/06/08 10:29:08;;;;;;;10.80;4.73;;;;;;;24.87;44.92;101608.31;5056148;28;20017;-95
2023/06/08 10:31:36;;;;;;;11.10;5.55;;;;;;;24.46;44.96;101609.09;5055466;28;20462;-92
2023/06/08 10:34:19;;;;;;;6.68;4.20;;;;;;;24.50;45.82;101598.22;5055895;28;20029;-92
2023/06/08 10:36:45;;;;;;;6.88;4.20;;;;;;;24.72;46.46;101602.19;5054233;28;20493;-90
2023/06/08 10:39:13;;;;;;;6.37;4.17;;;;;;;24.83;45.71;101599.69;5055642;28;20111;-93
2023/06/08 10:41:57;;;;;;;5.75;3.80;;;;;;;24.99;46.04;101609.34;5055429;28;20056;-90
2023/06/08 10:44:31;;;;;;;4.18;3.10;;;;;;;25.22;46.45;101604.34;5054895;28;20516;-93
2023/06/08 10:47:04;;;;;;;8.88;4.40;;;;;;;25.39;44.38;101600.56;5062567;22;20489;-93
2023/06/08 10:49:33;;;;;;;7.00;4.03;;;;;;;25.53;44.31;101594.38;5054622;28;20040;-92
2023/06/08 10:52:00;;;;;;;11.60;5.22;;;;;;;25.24;43.49;101591.78;5054898;28;20027;-92
2023/06/08 10:54:26;;;;;;;13.05;5.95;;;;;;;23.81;43.97;101595.28;5055137;28;20075;-90
2023/06/08 10:56:54;;;;;;;11.35;5.70;;;;;;;23.17;46.11;101591.91;5054977;28;20013;-92
2023/06/08 10:59:38;;;;;;;14.25;6.00;;;;;;;22.87;46.81;101596.19;5054972;28;20029;-91
2023/06/08 11:02:09;;;;;;;9.45;4.82;;;;;;;22.91;47.65;101578.34;5067199;28;20096;-92
2023/06/08 11:04:35;;;;;;;7.53;4.25;;;;;;;23.27;46.77;101588.69;5060952;28;20033;-91
2023/06/08 11:07:01;;;;;;;7.83;4.80;;;;;;;23.59;47.40;101575.34;5054688;28;20017;-91
2023/06/08 11:09:31;;;;;;;5.35;3.60;;;;;;;24.11;47.12;101582.94;5054942;28;20303;-92
2023/06/08 11:11:58;;;;;;;6.28;4.10;;;;;;;24.52;45.60;101579.53;5054498;28;20478;-93
2023/06/08 11:14:23;;;;;;;4.82;3.17;;;;;;;24.78;46.78;101561.97;5055052;28;20466;-93
2023/06/08 11:16:54;;;;;;;8.15;4.25;;;;;;;24.96;45.04;101559.09;5054062;28;20033;-93
2023/06/08 11:19:20;;;;;;;10.40;5.00;;;;;;;24.70;45.09;101563.44;5053766;28;20099;-80
2023/06/08 11:21:46;;;;;;;;;;;;;;;24.87;45.14;101559.69;5054263;28;20029;-90
2023/06/08 11:24:15;;;;;;;9.32;4.20;;;;;;;25.13;44.32;101561.47;5053875;28;19916;-89